Time;durP1;ratioP1;P1;durP2;ratioP2;P2;SDS_P1;SDS_P2;PMS_P1;PMS_P2;Temp;Humidity;BMP_temperature;BMP_pressure;BME280_temperature;BME280_humidity;BME280_pressure;Samples;Min_cycle;Max_cycle;Signal;HPM_P1;HPM_P2
2023/03/30 00:01:51;;;;;;;;;;;;;;;-140.72;0.00;52833.22;5065800;28;19920;-69
2023/03/30 00:04:17;;;;;;;;;;;;;;;-140.72;0.00;52800.75;5067813;28;19917;-70
2023/03/30 00:06:42;;;;;;;;;;;;;;;-140.72;0.00;52845.41;5050892;28;19920;-71
2023/03/30 00:09:08;;;;;;;;;;;;;;;-140.72;0.00;52839.31;5073291;28;19967;-69
2023/03/30 00:11:34;;;;;;;;;;;;;;;-140.72;0.00;52792.66;5065613;28;20383;-69
2023/03/30 00:14:00;;;;;;;;;;;;;;;-140.72;0.00;52823.09;5071544;28;19920;-69
2023/03/30 00:16:26;;;;;;;;;;;;;;;-140.72;0.00;52857.59;5073078;28;19927;-69
2023/03/30 00:19:02;;;;;;;;;;;;;;;-140.72;0.00;52817.00;5067336;28;19920;-69
2023/03/30 00:21:28;;;;;;;;;;;;;;;-140.72;0.00;52829.19;5073655;28;19924;-69
2023/03/30 00:23:53;;;;;;;;;;;;;;;-140.72;0.00;52792.66;5074064;28;19932;-69
2023/03/30 00:26:18;;;;;;;;;;;;;;;-140.72;0.00;52829.19;5056193;28;19921;-69
2023/03/30 00:28:44;;;;;;;;;;;;;;;-140.72;0.00;52833.22;5072435;28;20019;-69
2023/03/30 00:31:10;;;;;;;;;;;;;;;-140.72;0.00;52821.06;5074118;28;19924;-69
2023/03/30 00:33:35;;;;;;;;;;;;;;;-140.72;0.00;52845.41;5069378;28;20003;-69
2023/03/30 00:36:00;;;;;;;;;;;;;;;-140.72;0.00;52861.66;5071026;28;19916;-69
2023/03/30 00:38:26;;;;;;;;;;;;;;;-140.72;0.00;52829.19;5049131;28;19971;-69
2023/03/30 00:40:52;;;;;;;;;;;;;;;-140.72;0.00;52821.06;5073627;28;19983;-69
2023/03/30 00:43:18;;;;;;;;;;;;;;;-140.72;0.00;52825.13;5074086;28;19920;-68
2023/03/30 00:45:43;;;;;;;;;;;;;;;-140.72;0.00;52849.47;5053303;28;19923;-69
2023/03/30 00:48:11;;;;;;;;;;;;;;;-140.72;0.00;52835.25;5072553;28;19924;-69
2023/03/30 00:50:39;;;;;;;;;;;;;;;-140.72;0.00;52841.34;5068619;28;20371;-69
2023/03/30 00:53:08;;;;;;;;;;;;;;;-140.72;0.00;52812.94;5055441;28;20540;-69
2023/03/30 00:55:35;;;;;;;;;;;;;;;-140.72;0.00;52827.16;5071678;28;20659;-69
2023/03/30 00:58:01;;;;;;;;;;;;;;;-140.72;0.00;52863.66;5068160;28;19921;-70
2023/03/30 01:00:26;;;;;;;;;;;;;;;-140.72;0.00;52869.75;5074093;28;19923;-69
2023/03/30 01:02:55;;;;;;;;;;;;;;;-140.72;0.00;52817.00;5073636;28;20330;-69
2023/03/30 01:05:23;;;;;;;;;;;;;;;-140.72;0.00;52843.38;5052103;28;19947;-69
2023/03/30 01:07:49;;;;;;;;;;;;;;;-140.72;0.00;52810.91;5067839;28;19924;-69
2023/03/30 01:10:46;;;;;;;;;;;;;;;-140.72;0.00;52817.00;5070512;28;19921;-69
2023/03/30 01:13:12;;;;;;;;;;;;;;;-140.72;0.00;52825.13;5068320;28;19928;-69
2023/03/30 01:15:42;;;;;;;;;;;;;;;-140.72;0.00;52837.28;5072694;28;19920;-69
2023/03/30 01:18:13;;;;;;;;;;;;;;;-140.72;0.00;52808.88;5053603;28;19928;-69
2023/03/30 01:20:39;;;;;;;;;;;;;;;-140.72;0.00;52806.84;5067344;28;19921;-69
2023/03/30 01:23:26;;;;;;;;;;;;;;;-140.72;0.00;52829.19;5070673;28;19924;-69
2023/03/30 01:26:12;;;;;;;;;;;;;;;-140.72;0.00;52861.66;5070285;28;20032;-69
2023/03/30 01:28:47;;;;;;;;;;;;;;;-140.72;0.00;52849.47;5068584;28;19928;-69
2023/03/30 01:31:27;;;;;;;;;;;;;;;-140.72;0.00;52833.22;5068202;28;19989;-69
2023/03/30 01:34:11;;;;;;;;;;;;;;;-140.72;0.00;52812.94;5056066;28;19921;-69
2023/03/30 01:36:56;;;;;;;;;;;;;;;-140.72;0.00;52835.25;5072761;28;19928;-69
2023/03/30 01:39:27;;;;;;;;;;;;;;;-140.72;0.00;52849.47;5043655;28;19928;-69
2023/03/30 01:42:08;;;;;;;;;;;;;;;-140.72;0.00;52861.66;5067333;28;19920;-69
2023/03/30 01:44:41;;;;;;;;;;;;;;;-140.72;0.00;52861.66;5072934;28;19928;-69
2023/03/30 01:47:09;;;;;;;;;;;;;;;-140.72;0.00;52857.59;5054993;28;19927;-69
2023/03/30 01:49:40;;;;;;;;;;;;;;;-140.72;0.00;52841.34;5054078;28;19923;-69
2023/03/30 01:52:09;;;;;;;;;;;;;;;-140.72;0.00;52873.81;5066564;28;20007;-69
2023/03/30 01:54:50;;;;;;;;;;;;;;;-140.72;0.00;52812.94;5068337;28;19925;-69
2023/03/30 01:57:20;;;;;;;;;;;;;;;-140.72;0.00;52833.22;5069879;28;19982;-69
2023/03/30 02:00:11;;;;;;;;;;;;;;;-140.72;0.00;52825.13;5075197;28;20011;-69
2023/03/30 02:02:37;;;;;;;;;;;;;;;-140.72;0.00;52821.06;5075531;28;19921;-69
2023/03/30 02:05:17;;;;;;;;;;;;;;;-140.72;0.00;52869.75;5076087;28;20401;-69
2023/03/30 02:07:45;;;;;;;;;;;;;;;-140.72;0.00;52819.03;5078868;28;19920;-68
2023/03/30 02:10:13;;;;;;;;;;;;;;;-140.72;0.00;52827.16;5069994;28;19927;-69
2023/03/30 02:12:39;;;;;;;;;;;;;;;-140.72;0.00;52875.84;5056047;28;19917;-69
2023/03/30 02:15:08;;;;;;;;;;;;;;;-140.72;0.00;52823.09;5076243;28;19927;-70
2023/03/30 02:17:34;;;;;;;;;;;;;;;-140.72;0.00;52847.44;5074560;28;19931;-69
2023/03/30 02:20:00;;;;;;;;;;;;;;;-140.72;0.00;52873.81;5075044;28;19916;-68
2023/03/30 02:22:26;;;;;;;;;;;;;;;-140.72;0.00;52825.13;5084157;28;19916;-69
2023/03/30 02:24:56;;;;;;;;;;;;;;;-140.72;0.00;52837.28;5072984;28;19921;-68
2023/03/30 02:27:22;;;;;;;;;;;;;;;-140.72;0.00;52853.53;5055917;28;19916;-68
2023/03/30 02:29:48;;;;;;;;;;;;;;;-140.72;0.00;52825.13;5074753;28;19955;-68
2023/03/30 02:32:22;;;;;;;;;;;;;;;-140.72;0.00;52845.41;5074044;28;21271;-68
2023/03/30 02:35:10;;;;;;;;;;;;;;;-140.72;3.63;52859.63;5071215;28;20354;-68
2023/03/30 02:37:56;;;;;;;;;;;;;;;-140.72;9.87;52853.53;5053298;28;19936;-68
2023/03/30 02:40:31;;;;;;;;;;;;;;;-140.72;18.73;52821.06;5053143;28;19927;-68
2023/03/30 02:43:15;;;;;;;;;;;;;;;-140.72;23.67;52843.38;5057091;28;20290;-68
2023/03/30 02:45:41;;;;;;;;;;;;;;;-140.72;27.54;52894.13;5072223;28;19923;-72
2023/03/30 02:48:26;;;;;;;;;;;;;;;-140.72;36.36;52837.28;5058553;28;19921;-68
2023/03/30 02:51:10;;;;;;;;;;;;;;;-140.72;52.39;52841.34;5049306;28;19923;-69
2023/03/30 02:53:50;;;;;;;;;;;;;;;-140.72;60.03;52857.59;5074253;28;19924;-69
2023/03/30 02:56:15;;;;;;;;;;;;;;;-140.72;75.63;52853.53;5080087;28;19921;-69
2023/03/30 02:58:46;;;;;;;;;;;;;;;-140.72;93.16;52900.19;5075883;28;19940;-69
2023/03/30 03:01:16;;;;;;;;;;;;;;;-140.72;100.00;52912.38;5077265;28;19920;-69
2023/03/30 03:03:44;;;;;;;;;;;;;;;-140.72;100.00;52865.69;5076302;28;19928;-71
2023/03/30 03:06:13;;;;;;;;;;;;;;;-140.72;100.00;52890.06;5071329;28;19979;-68
2023/03/30 03:08:39;;;;;;;;;;;;;;;-140.72;100.00;52859.63;5071635;28;19920;-68
2023/03/30 03:11:08;;;;;;;;;;;;;;;-140.72;100.00;52853.53;5073688;28;19928;-68
2023/03/30 03:13:35;;;;;;;;;;;;;;;-140.72;100.00;52829.19;5074687;28;19921;-68
2023/03/30 03:16:01;;;;;;;;;;;;;;;-140.72;100.00;52833.22;5056928;28;19920;-68
2023/03/30 03:18:26;;;;;;;;;;;;;;;-140.72;100.00;52892.09;5057272;28;19969;-68
2023/03/30 03:20:51;;;;;;;;;;;;;;;-140.72;100.00;52823.09;5063151;28;20375;-68
2023/03/30 03:23:16;;;;;;;;;;;;;;;-140.72;100.00;52841.34;5072846;28;20441;-68
2023/03/30 03:25:42;;;;;;;;;;;;;;;-140.72;100.00;52821.06;5072349;28;20015;-68
2023/03/30 03:28:07;;;;;;;;;;;;;;;-140.72;100.00;52861.66;5070660;28;19982;-68
2023/03/30 03:30:32;;;;;;;;;;;;;;;-140.72;100.00;52849.47;5066585;28;19924;-69
2023/03/30 03:32:58;;;;;;;;;;;;;;;-140.72;100.00;52904.25;5057043;28;19935;-68
2023/03/30 03:35:23;;;;;;;;;;;;;;;-140.72;100.00;52833.22;5054773;28;19927;-68
2023/03/30 03:37:48;;;;;;;;;;;;;;;-140.72;100.00;52847.44;5070018;28;19925;-68
2023/03/30 03:40:13;;;;;;;;;;;;;;;-140.72;100.00;52847.44;5054573;28;19979;-68
2023/03/30 03:42:39;;;;;;;;;;;;;;;-140.72;100.00;52845.41;5071358;28;19924;-68
2023/03/30 03:45:04;;;;;;;;;;;;;;;-140.72;100.00;52855.56;5075442;28;20401;-68
2023/03/30 03:47:30;;;;;;;;;;;;;;;-140.72;100.00;52869.75;5075462;28;19916;-68
2023/03/30 03:49:55;;;;;;;;;;;;;;;-140.72;100.00;52837.28;5075005;28;20064;-69
2023/03/30 03:52:21;;;;;;;;;;;;;;;-140.72;100.00;52847.44;5076270;28;19938;-70
2023/03/30 03:54:46;;;;;;;;;;;;;;;-140.72;100.00;52837.28;5071282;28;19921;-68
2023/03/30 03:57:11;;;;;;;;;;;;;;;-140.72;100.00;52857.59;5053813;28;19935;-69
2023/03/30 03:59:37;;;;;;;;;;;;;;;-140.72;100.00;52877.88;5070050;28;20057;-68
2023/03/30 04:02:04;;;;;;;;;;;;;;;-140.72;100.00;52875.84;5070165;28;20272;-68
2023/03/30 04:04:29;;;;;;;;;;;;;;;-140.72;100.00;52841.34;5049073;28;19921;-68
2023/03/30 04:06:55;;;;;;;;;;;;;;;-140.72;100.00;52881.94;5073822;28;19930;-68
2023/03/30 04:09:20;;;;;;;;;;;;;;;-140.72;100.00;52879.91;5071952;28;20291;-68
2023/03/30 04:11:46;;;;;;;;;;;;;;;-140.72;100.00;52857.59;5071338;28;20007;-68
2023/03/30 04:14:11;;;;;;;;;;;;;;;-140.72;100.00;52890.06;5052197;28;19928;-68
2023/03/30 04:16:36;;;;;;;;;;;;;;;-140.72;100.00;52894.13;5048673;28;19920;-68
2023/03/30 04:19:02;;;;;;;;;;;;;;;-140.72;100.00;52942.81;5050522;28;20007;-68
2023/03/30 04:21:28;;;;;;;;;;;;;;;-140.72;100.00;52890.06;5053184;28;19916;-68
2023/03/30 04:23:53;;;;;;;;;;;;;;;-140.72;100.00;52906.28;5052888;28;19970;-68
2023/03/30 04:26:19;;;;;;;;;;;;;;;-140.72;100.00;52922.53;5052399;28;19921;-68
2023/03/30 04:28:45;;;;;;;;;;;;;;;-140.72;100.00;52898.16;5052433;28;20003;-69
2023/03/30 04:31:11;;;;;;;;;;;;;;;-140.72;100.00;52906.28;5035370;28;19921;-70
2023/03/30 04:33:44;;;;;;;;;;;;;;;-140.72;100.00;52886.00;5034698;28;20074;-70
2023/03/30 04:36:09;;;;;;;;;;;;;;;-140.72;100.00;52890.06;5046752;28;20015;-69
2023/03/30 04:38:35;;;;;;;;;;;;;;;-140.72;100.00;52894.13;5051377;28;20038;-69
2023/03/30 04:41:00;;;;;;;;;;;;;;;-140.72;100.00;52906.28;5048602;28;19943;-69
2023/03/30 04:43:26;;;;;;;;;;;;;;;-140.72;100.00;52881.94;5052079;28;19924;-69
2023/03/30 04:45:52;;;;;;;;;;;;;;;-140.72;100.00;52936.72;5052809;28;19971;-68
2023/03/30 04:48:18;;;;;;;;;;;;;;;-140.72;100.00;52910.34;5054026;28;20031;-68
2023/03/30 04:50:44;;;;;;;;;;;;;;;-140.72;100.00;52894.13;5053712;28;20279;-69
2023/03/30 04:53:09;;;;;;;;;;;;;;;-140.72;100.00;52890.06;5054496;28;19917;-69
2023/03/30 04:55:35;;;;;;;;;;;;;;;-140.72;100.00;52875.84;5053233;28;19920;-68
2023/03/30 04:58:00;;;;;;;;;;;;;;;-140.72;100.00;52920.50;5035656;28;19921;-68
2023/03/30 05:00:26;;;;;;;;;;;;;;;-140.72;100.00;52894.13;5030195;28;19921;-69
2023/03/30 05:02:51;;;;;;;;;;;;;;;-140.72;100.00;52904.25;5045182;28;19961;-68
2023/03/30 05:05:18;;;;;;;;;;;;;;;-140.72;100.00;52906.28;5050171;28;19984;-69
2023/03/30 05:07:45;;;;;;;;;;;;;;;-140.72;100.00;52881.94;5052492;28;19920;-67
2023/03/30 05:10:10;;;;;;;;;;;;;;;-140.72;100.00;52918.47;5053549;28;19990;-68
2023/03/30 05:12:35;;;;;;;;;;;;;;;-140.72;100.00;52906.28;5053371;28;19921;-68
2023/03/30 05:15:01;;;;;;;;;;;;;;;-140.72;100.00;52904.25;5030363;28;19928;-67
2023/03/30 05:17:26;;;;;;;;;;;;;;;-140.72;100.00;52948.91;5072231;28;19921;-68
2023/03/30 05:19:52;;;;;;;;;;;;;;;-140.72;100.00;52906.28;5069714;28;20003;-68
2023/03/30 05:22:19;;;;;;;;;;;;;;;-140.72;100.00;52914.41;5072579;28;20185;-68
2023/03/30 05:24:44;;;;;;;;;;;;;;;-140.72;100.00;52894.13;5072027;28;19921;-68
2023/03/30 05:27:10;;;;;;;;;;;;;;;-140.72;100.00;52906.28;5073172;28;20286;-69
2023/03/30 05:29:35;;;;;;;;;;;;;;;-140.72;100.00;52922.53;5073095;28;20414;-67
2023/03/30 05:32:00;;;;;;;;;;;;;;;-140.72;100.00;52940.78;5071482;28;19936;-68
2023/03/30 05:34:26;;;;;;;;;;;;;;;-140.72;100.00;52948.91;5052186;28;19923;-67
2023/03/30 05:36:51;;;;;;;;;;;;;;;-140.72;100.00;52959.06;5067435;28;21582;-69
2023/03/30 05:39:16;;;;;;;;;;;;;;;-140.72;100.00;52922.53;5071424;28;19921;-67
2023/03/30 05:41:42;;;;;;;;;;;;;;;-140.72;100.00;52904.25;5071956;28;19920;-67
2023/03/30 05:44:07;;;;;;;;;;;;;;;-140.72;100.00;52934.69;5071462;28;19921;-67
2023/03/30 05:46:42;;;;;;;;;;;;;;;-140.72;100.00;52922.53;5069179;28;19928;-69
2023/03/30 05:49:07;;;;;;;;;;;;;;;-140.72;100.00;52930.66;5071564;28;20328;-69
2023/03/30 05:51:33;;;;;;;;;;;;;;;-140.72;100.00;52928.63;5069166;28;20007;-71
2023/03/30 05:53:59;;;;;;;;;;;;;;;-140.72;100.00;52892.09;5053852;28;20011;-71
2023/03/30 05:56:24;;;;;;;;;;;;;;;-140.72;100.00;52936.72;5049040;28;20374;-72
2023/03/30 05:58:50;;;;;;;;;;;;;;;-140.72;100.00;52957.03;5069566;28;19924;-67
2023/03/30 06:01:15;;;;;;;;;;;;;;;-140.72;100.00;52934.69;5043056;28;19928;-68
2023/03/30 06:03:40;;;;;;;;;;;;;;;-140.72;100.00;52938.75;5070836;28;19982;-68
2023/03/30 06:06:06;;;;;;;;;;;;;;;-140.72;100.00;52879.91;5073352;28;19924;-68
2023/03/30 06:08:32;;;;;;;;;;;;;;;-140.72;100.00;52902.22;5073444;28;20343;-68
2023/03/30 06:10:57;;;;;;;;;;;;;;;-140.72;100.00;52955.00;5055364;28;19917;-68
2023/03/30 06:13:22;;;;;;;;;;;;;;;-140.72;100.00;52961.09;5073079;28;20367;-68
2023/03/30 06:15:48;;;;;;;;;;;;;;;-140.72;100.00;52890.06;5073224;28;19924;-68
2023/03/30 06:18:13;;;;;;;;;;;;;;;-140.72;100.00;52890.06;5054314;28;20294;-68
2023/03/30 06:20:39;;;;;;;;;;;;;;;-140.72;100.00;52938.75;5054698;28;19920;-68
2023/03/30 06:23:04;;;;;;;;;;;;;;;-140.72;100.00;52894.13;5065203;28;19990;-67
2023/03/30 06:25:29;;;;;;;;;;;;;;;-140.72;100.00;52904.25;5067416;28;19924;-67
2023/03/30 06:27:55;;;;;;;;;;;;;;;-140.72;100.00;52924.56;5073092;28;19927;-68
2023/03/30 06:30:20;;;;;;;;;;;;;;;-140.72;100.00;52922.53;5072604;28;20063;-67
2023/03/30 06:32:46;;;;;;;;;;;;;;;-140.72;100.00;52892.09;5073296;28;19916;-67
2023/03/30 06:35:12;;;;;;;;;;;;;;;-140.72;100.00;52920.50;5073055;28;19963;-67
2023/03/30 06:37:37;;;;;;;;;;;;;;;-140.72;100.00;52904.25;5073469;28;20274;-67
2023/03/30 06:40:12;;;;;;;;;;;;;;;-140.72;100.00;52877.88;5071986;28;20007;-67
2023/03/30 06:42:42;;;;;;;;;;;;;;;-140.72;100.00;52918.47;5064179;28;20126;-67
2023/03/30 06:45:09;;;;;;;;;;;;;;;-140.72;100.00;52950.94;5057506;28;19923;-67
2023/03/30 06:47:34;;;;;;;;;;;;;;;-140.72;100.00;52908.31;5076909;28;19917;-67
2023/03/30 06:49:59;;;;;;;;;;;;;;;-140.72;100.00;52930.66;5076589;28;19916;-67
2023/03/30 06:52:24;;;;;;;;;;;;;;;-140.72;100.00;52932.66;5074486;28;19986;-67
2023/03/30 06:54:50;;;;;;;;;;;;;;;-140.72;100.00;52886.00;5069888;28;19924;-67
2023/03/30 06:57:15;;;;;;;;;;;;;;;-140.72;100.00;52867.72;5076406;28;19970;-69
2023/03/30 06:59:40;;;;;;;;;;;;;;;-140.72;100.00;52873.81;5076300;28;19920;-68
2023/03/30 07:02:05;;;;;;;;;;;;;;;-140.72;100.00;52938.75;5076384;28;19916;-68
2023/03/30 07:04:31;;;;;;;;;;;;;;;-140.72;100.00;52922.53;5076446;28;19921;-67
2023/03/30 07:06:56;;;;;;;;;;;;;;;-140.72;100.00;52934.69;5058434;28;20286;-68
2023/03/30 07:09:21;;;;;;;;;;;;;;;-140.72;100.00;52904.25;5044827;28;20390;-67
2023/03/30 07:11:47;;;;;;;;;;;;;;;-140.72;100.00;52942.81;5076419;28;19920;-67
2023/03/30 07:14:12;;;;;;;;;;;;;;;-140.72;100.00;52930.66;5075836;28;19921;-67
2023/03/30 07:16:37;;;;;;;;;;;;;;;-140.72;100.00;52881.94;5067332;28;19927;-67
2023/03/30 07:19:04;;;;;;;;;;;;;;;-140.72;100.00;52863.66;5071263;28;19916;-67
2023/03/30 07:21:29;;;;;;;;;;;;;;;-140.72;100.00;52904.25;5075815;28;19916;-67
2023/03/30 07:23:55;;;;;;;;;;;;;;;-140.72;100.00;52894.13;5075612;28;20397;-67
2023/03/30 07:26:20;;;;;;;;;;;;;;;-140.72;100.00;52881.94;5075929;28;19917;-68
2023/03/30 07:28:45;;;;;;;;;;;;;;;-140.72;100.00;52871.78;5075375;28;19917;-68
2023/03/30 07:31:12;;;;;;;;;;;;;;;-140.72;100.00;52934.69;5068357;28;19916;-68
2023/03/30 07:33:38;;;;;;;;;;;;;;;-140.72;100.00;52865.69;5057791;28;19921;-67
2023/03/30 07:36:03;;;;;;;;;;;;;;;-140.72;100.00;52873.81;5054190;28;19927;-67
2023/03/30 07:38:29;;;;;;;;;;;;;;;-140.72;100.00;52890.06;5072226;28;19916;-68
2023/03/30 07:40:55;;;;;;;;;;;;;;;-140.72;100.00;52918.47;5067005;28;19921;-68
2023/03/30 07:43:20;;;;;;;;;;;;;;;-140.72;100.00;52918.47;5057598;28;19920;-69
2023/03/30 07:45:46;;;;;;;;;;;;;;;-140.72;100.00;52902.22;5075426;28;19917;-68
2023/03/30 07:48:11;;;;;;;;;;;;;;;-140.72;100.00;52902.22;5068190;28;19923;-68
2023/03/30 07:50:36;;;;;;;;;;;;;;;-140.72;100.00;52879.91;5069683;28;19916;-68
2023/03/30 07:53:02;;;;;;;;;;;;;;;-140.72;100.00;52894.13;5057167;28;19920;-68
2023/03/30 07:55:27;;;;;;;;;;;;;;;-140.72;100.00;52900.19;5068785;28;20031;-68
2023/03/30 07:57:53;;;;;;;;;;;;;;;-140.72;100.00;52946.88;5055441;28;20291;-67
2023/03/30 08:00:21;;;;;;;;;;;;;;;-140.72;100.00;52900.19;5061888;28;19916;-67
2023/03/30 08:02:46;;;;;;;;;;;;;;;-140.72;100.00;52865.69;5075146;28;20286;-68
2023/03/30 08:05:11;;;;;;;;;;;;;;;-140.72;100.00;52914.41;5075291;28;19917;-68
2023/03/30 08:07:37;;;;;;;;;;;;;;;-140.72;100.00;52849.47;5074973;28;19916;-67
2023/03/30 08:10:02;;;;;;;;;;;;;;;-140.72;100.00;52914.41;5075183;28;19916;-68
2023/03/30 08:12:28;;;;;;;;;;;;;;;-140.72;100.00;52837.28;5074266;28;19920;-67
2023/03/30 08:14:54;;;;;;;;;;;;;;;-140.72;100.00;52845.41;5056887;28;20275;-68
2023/03/30 08:17:20;;;;;;;;;;;;;;;-140.72;100.00;52853.53;5060547;28;19923;-67
2023/03/30 08:19:45;;;;;;;;;;;;;;;-140.72;100.00;52865.69;5041736;28;20409;-67
2023/03/30 08:22:10;;;;;;;;;;;;;;;-140.72;100.00;52857.59;5065589;28;19966;-68
2023/03/30 08:24:36;;;;;;;;;;;;;;;-140.72;100.00;52902.22;5054887;28;20375;-68
2023/03/30 08:27:01;;;;;;;;;;;;;;;-140.72;100.00;52865.69;5053640;28;20362;-68
2023/03/30 08:29:28;;;;;;;;;;;;;;;-140.72;100.00;52873.81;5054895;28;19916;-68
2023/03/30 08:31:53;;;;;;;;;;;;;;;-140.72;100.00;52918.47;5054783;28;19921;-67
2023/03/30 08:34:18;;;;;;;;;;;;;;;-140.72;100.00;52877.88;5047471;28;20272;-68
2023/03/30 08:36:44;;;;;;;;;;;;;;;-140.72;100.00;52926.59;5054401;28;20007;-68
2023/03/30 08:39:09;;;;;;;;;;;;;;;-140.72;100.00;52855.56;5061133;28;19917;-68
2023/03/30 08:41:38;;;;;;;;;;;;;;;-140.72;100.00;52886.00;5056523;28;19928;-68
2023/03/30 08:44:22;;;;;;;;;;;;;;;-140.72;100.00;52879.91;5041452;28;19924;-68
2023/03/30 08:46:48;;;;;;;;;;;;;;;-140.72;100.00;52829.19;5043910;28;19923;-68
2023/03/30 08:49:15;;;;;;;;;;;;;;;-140.72;100.00;52857.59;5054234;28;20024;-68
2023/03/30 08:51:41;;;;;;;;;;;;;;;-140.72;100.00;52894.13;5057900;28;20007;-68
2023/03/30 08:54:11;;;;;;;;;;;;;;;-140.72;100.00;52879.91;5062962;28;20390;-68
2023/03/30 08:56:39;;;;;;;;;;;;;;;-140.72;100.00;52831.19;5054808;28;19927;-67
2023/03/30 08:59:16;;;;;;;;;;;;;;;-140.72;100.00;52883.97;5063877;28;20401;-68
2023/03/30 09:01:59;;;;;;;;;;;;;;;-140.72;100.00;52855.56;5057787;28;19924;-68
2023/03/30 09:04:39;;;;;;;;;;;;;;;-140.72;100.00;52829.19;5030306;28;19921;-68
2023/03/30 09:07:13;;;;;;;;;;;;;;;-140.72;100.00;52833.22;5036212;28;19967;-67
2023/03/30 09:09:41;;;;;;;;;;;;;;;-140.72;100.00;52802.78;5054093;28;19956;-68
2023/03/30 09:12:18;;;;;;;;;;;;;;;-140.72;100.00;52823.09;5046407;28;19924;-68
2023/03/30 09:14:47;;;;;;;;;;;;;;;-140.72;100.00;52849.47;5053183;28;20390;-67
2023/03/30 09:17:19;;;;;;;;;;;;;;;-140.72;100.00;52831.19;5066692;28;19923;-67
2023/03/30 09:19:45;;;;;;;;;;;;;;;-140.72;100.00;52829.19;5069092;28;19921;-68
2023/03/30 09:22:12;;;;;;;;;;;;;;;-140.72;100.00;52817.00;5073506;28;19916;-68
2023/03/30 09:24:37;;;;;;;;;;;;;;;-140.72;100.00;52827.16;5073726;28;19920;-68
2023/03/30 09:27:02;;;;;;;;;;;;;;;-140.72;100.00;52745.97;5073649;28;20015;-68
2023/03/30 09:29:30;;;;;;;;;;;;;;;-140.72;75.92;52750.03;5073300;28;19955;-68
2023/03/30 09:32:12;;;;;;;;;;;;;;;-140.72;26.51;52774.38;5053484;28;19969;-68
2023/03/30 09:34:37;;;;;;;;;;;;;;;-140.72;0.00;52768.28;5066593;28;19969;-68
2023/03/30 09:37:04;;;;;;;;;;;;;;;-140.72;0.00;52794.69;5071208;28;20011;-68
2023/03/30 09:39:30;;;;;;;;;;;;;;;-140.72;0.00;52768.28;5073430;28;20458;-68
2023/03/30 09:42:01;;;;;;;;;;;;;;;-140.72;0.00;52758.16;5073000;28;19916;-68
2023/03/30 09:44:27;;;;;;;;;;;;;;;-140.72;0.00;52780.47;5073386;28;19920;-68
2023/03/30 09:46:56;;;;;;;;;;;;;;;-140.72;0.00;52782.50;5073868;28;19917;-68
2023/03/30 09:49:25;;;;;;;;;;;;;;;-140.72;0.00;52792.66;5055922;28;19928;-68
2023/03/30 09:51:51;;;;;;;;;;;;;;;-140.72;0.00;52790.63;5073726;28;19964;-68
2023/03/30 09:54:17;;;;;;;;;;;;;;;-140.72;0.00;52788.59;5073224;28;19924;-68
2023/03/30 09:56:50;;;;;;;;;;;;;;;-140.72;0.00;52739.88;5073145;28;19917;-68
2023/03/30 09:59:18;;;;;;;;;;;;;;;-140.72;0.00;52741.91;5074019;28;19928;-69
2023/03/30 10:01:43;;;;;;;;;;;;;;;-140.72;0.00;52754.09;5073202;28;19917;-68
2023/03/30 10:04:10;;;;;;;;;;;;;;;-140.72;0.00;52658.72;5073328;28;19961;-67
2023/03/30 10:06:45;;;;;;;;;;;;;;;-140.72;0.00;52713.50;5073307;28;20020;-68
2023/03/30 10:09:12;;;;;;;;;;;;;;;-140.72;0.00;52713.50;5055107;28;19952;-67
2023/03/30 10:11:42;;;;;;;;;;;;;;;-140.72;0.00;52683.06;5067670;28;19916;-68
2023/03/30 10:14:30;;;;;;;;;;;;;;;-140.72;0.00;52776.41;5073060;28;20324;-68
2023/03/30 10:16:56;;;;;;;;;;;;;;;-140.72;0.00;52752.06;5041312;28;19936;-67
2023/03/30 10:19:23;;;;;;;;;;;;;;;-140.72;0.00;52707.41;5074754;28;19916;-68
2023/03/30 10:21:53;;;;;;;;;;;;;;;-140.72;0.00;52745.97;5077046;28;19997;-68
2023/03/30 10:24:23;;;;;;;;;;;;;;;-140.72;0.00;52662.78;5076853;28;19947;-68
2023/03/30 10:26:51;;;;;;;;;;;;;;;-140.72;0.00;52776.41;5056663;28;20301;-68
2023/03/30 10:29:17;;;;;;;;;;;;;;;-140.72;0.00;52721.63;5077143;28;19924;-68
2023/03/30 10:31:45;;;;;;;;;;;;;;;-140.72;0.00;52778.44;5063721;28;19917;-68
2023/03/30 10:34:27;;;;;;;;;;;;;;;-140.72;0.00;52748.00;5077054;28;20354;-68
2023/03/30 10:36:53;;;;;;;;;;;;;;;-140.72;0.00;52758.16;5076913;28;19917;-67
2023/03/30 10:39:18;;;;;;;;;;;;;;;-140.72;0.00;52792.66;5077587;28;20012;-68
2023/03/30 10:41:45;;;;;;;;;;;;;;;-140.72;0.00;52772.34;5076984;28;19917;-68
2023/03/30 10:44:16;;;;;;;;;;;;;;;-140.72;0.00;52782.50;5075807;28;19917;-68
2023/03/30 10:46:42;;;;;;;;;;;;;;;-140.72;0.00;52790.63;5066447;28;19917;-68
2023/03/30 10:49:37;;;;;;;;;;;;;;;-140.72;0.00;52752.06;5064542;28;19970;-67
2023/03/30 10:52:11;;;;;;;;;;;;;;;-140.72;0.00;52748.00;5076279;28;20378;-68
2023/03/30 10:54:49;;;;;;;;;;;;;;;-140.72;0.00;52745.97;5065289;28;19917;-67
2023/03/30 10:57:16;;;;;;;;;;;;;;;-140.72;0.00;52737.84;5038594;28;20031;-68
2023/03/30 10:59:44;;;;;;;;;;;;;;;-140.72;0.00;52705.38;5070843;28;19924;-67
2023/03/30 11:02:28;;;;;;;;;;;;;;;-140.72;0.00;52729.75;5076072;28;20328;-68
2023/03/30 11:04:55;;;;;;;;;;;;;;;-140.72;0.00;52731.75;5076161;28;19963;-68
2023/03/30 11:07:29;;;;;;;;;;;;;;;-140.72;0.00;52739.88;5064486;28;19923;-69
2023/03/30 11:09:58;;;;;;;;;;;;;;;-140.72;0.00;52768.28;5063088;28;19951;-68
2023/03/30 11:12:28;;;;;;;;;;;;;;;-140.72;0.00;52760.19;5050691;28;19917;-67
2023/03/30 11:14:56;;;;;;;;;;;;;;;-140.72;0.00;52735.81;5057704;28;20389;-66
2023/03/30 11:17:32;;;;;;;;;;;;;;;-140.72;0.00;52709.44;5075368;28;19927;-67
2023/03/30 11:20:05;;;;;;;;;;;;;;;-140.72;0.00;52709.44;5075896;28;19959;-67
2023/03/30 11:22:30;;;;;;;;;;;;;;;-140.72;0.00;52683.06;5075861;28;20315;-67
2023/03/30 11:24:56;;;;;;;;;;;;;;;-140.72;0.00;52739.88;5075600;28;19960;-68
2023/03/30 11:27:28;;;;;;;;;;;;;;;-140.72;0.00;52772.34;5057410;28;20015;-67
2023/03/30 11:30:29;;;;;;;;;;;;;;;-140.72;0.00;52760.19;5075214;28;20442;-67
2023/03/30 11:33:12;;;;;;;;;;;;;;;-140.72;0.00;52729.75;4994445;28;19922;-67
2023/03/30 11:35:40;;;;;;;;;;;;;;;-140.72;0.00;52776.41;5057140;28;19916;-67
2023/03/30 11:38:05;;;;;;;;;;;;;;;-140.72;0.00;52804.81;5075434;28;19924;-68
2023/03/30 11:40:37;;;;;;;;;;;;;;;-140.72;0.00;52821.06;5075720;28;20379;-68
2023/03/30 11:43:03;;;;;;;;;;;;;;;-140.72;0.00;52800.75;5057773;28;19917;-68
2023/03/30 11:45:47;;;;;;;;;;;;;;;-140.72;0.00;52812.94;5075330;28;20436;-68
2023/03/30 11:48:15;;;;;;;;;;;;;;;-140.72;30.48;52794.69;5058631;28;19921;-68
2023/03/30 11:50:49;;;;;;;;;;;;;;;-140.72;83.20;52825.13;5057290;28;19917;-68
2023/03/30 11:53:26;;;;;;;;;;;;;;;-140.72;95.14;52792.66;5056815;28;19916;-68
2023/03/30 11:56:12;;;;;;;;;;;;;;;-140.72;100.00;52743.94;5074675;28;19916;-68
2023/03/30 11:58:46;;;;;;;;;;;;;;;-140.72;92.05;52770.31;5074281;28;19918;-68
2023/03/30 12:01:31;;;;;;;;;;;;;;;-140.72;91.73;52808.88;5061539;28;19916;-67
2023/03/30 12:04:17;;;;;;;;;;;;;;;-140.72;100.00;52825.13;5043503;28;19923;-68
2023/03/30 12:06:59;;;;;;;;;;;;;;;-140.72;100.00;52831.19;5075107;28;19946;-68
2023/03/30 12:09:33;;;;;;;;;;;;;;;-140.72;100.00;52798.72;5074874;28;20371;-68
2023/03/30 12:12:04;;;;;;;;;;;;;;;-140.72;100.00;52883.97;5075001;28;19917;-68
2023/03/30 12:14:35;;;;;;;;;;;;;;;-140.72;100.00;52817.00;5074931;28;19920;-68
2023/03/30 12:17:17;;;;;;;;;;;;;;;-140.72;100.00;52829.19;5075292;28;19928;-68
2023/03/30 12:19:46;;;;;;;;;;;;;;;-140.72;100.00;52831.19;5074831;28;19924;-68
2023/03/30 12:22:22;;;;;;;;;;;;;;;-140.72;100.00;52857.59;5075204;28;19924;-68
2023/03/30 12:24:53;;;;;;;;;;;;;;;-140.72;100.00;52863.66;5056800;28;19917;-68
2023/03/30 12:27:18;;;;;;;;;;;;;;;-140.72;100.00;52865.69;5074595;28;20053;-68
2023/03/30 12:29:51;;;;;;;;;;;;;;;-140.72;100.00;52892.09;5045797;28;19921;-68
2023/03/30 12:32:26;;;;;;;;;;;;;;;-140.72;100.00;52847.44;5072904;28;19951;-68
2023/03/30 12:34:52;;;;;;;;;;;;;;;-140.72;100.00;52845.41;5074627;28;19916;-68